sensor_id;sensor_type;location;lat;lon;timestamp;temperature;humidity
68385;DHT22;55336;43.062;25.626;2022-09-17T00:00:49;16.40;99.90
68385;DHT22;55336;43.062;25.626;2022-09-17T00:03:15;16.40;99.90
68385;DHT22;55336;43.062;25.626;2022-09-17T00:05:41;16.40;99.90
68385;DHT22;55336;43.062;25.626;2022-09-17T00:08:10;16.50;99.90
68385;DHT22;55336;43.062;25.626;2022-09-17T00:10:38;16.50;99.90
68385;DHT22;55336;43.062;25.626;2022-09-17T00:13:06;16.40;99.90
68385;DHT22;55336;43.062;25.626;2022-09-17T00:15:37;16.50;99.90
68385;DHT22;55336;43.062;25.626;2022-09-17T00:18:04;16.50;99.90
68385;DHT22;55336;43.062;25.626;2022-09-17T00:20:30;16.60;99.90
68385;DHT22;55336;43.062;25.626;2022-09-17T00:22:56;16.60;99.90
68385;DHT22;55336;43.062;25.626;2022-09-17T00:25:22;16.70;99.90
68385;DHT22;55336;43.062;25.626;2022-09-17T00:27:48;16.70;99.90
68385;DHT22;55336;43.062;25.626;2022-09-17T00:30:14;16.80;99.90
68385;DHT22;55336;43.062;25.626;2022-09-17T00:32:41;16.80;99.90
68385;DHT22;55336;43.062;25.626;2022-09-17T00:35:08;16.90;99.90
68385;DHT22;55336;43.062;25.626;2022-09-17T00:37:34;16.90;99.90
68385;DHT22;55336;43.062;25.626;2022-09-17T00:40:00;16.90;99.90
68385;DHT22;55336;43.062;25.626;2022-09-17T00:42:26;17.00;99.90
68385;DHT22;55336;43.062;25.626;2022-09-17T00:44:55;17.00;99.90
68385;DHT22;55336;43.062;25.626;2022-09-17T00:47:30;17.10;99.90
68385;DHT22;55336;43.062;25.626;2022-09-17T00:50:05;17.10;99.90
68385;DHT22;55336;43.062;25.626;2022-09-17T00:53:01;17.10;99.90
68385;DHT22;55336;43.062;25.626;2022-09-17T00:55:54;17.10;99.90
68385;DHT22;55336;43.062;25.626;2022-09-17T00:58:20;17.10;99.90
68385;DHT22;55336;43.062;25.626;2022-09-17T01:00:47;17.10;99.90
68385;DHT22;55336;43.062;25.626;2022-09-17T01:03:13;17.10;99.90
68385;DHT22;55336;43.062;25.626;2022-09-17T01:11:58;17.10;99.90
68385;DHT22;55336;43.062;25.626;2022-09-17T01:14:50;17.10;99.90
68385;DHT22;55336;43.062;25.626;2022-09-17T01:17:43;17.00;99.90
68385;DHT22;55336;43.062;25.626;2022-09-17T01:26:11;16.90;99.90
68385;DHT22;55336;43.062;25.626;2022-09-17T01:31:42;16.80;99.90
68385;DHT22;55336;43.062;25.626;2022-09-17T01:34:43;16.80;99.90
68385;DHT22;55336;43.062;25.626;2022-09-17T01:40:05;16.70;99.90
68385;DHT22;55336;43.062;25.626;2022-09-17T01:45:37;16.60;99.90
68385;DHT22;55336;43.062;25.626;2022-09-17T01:48:26;16.70;99.90
68385;DHT22;55336;43.062;25.626;2022-09-17T01:50:58;16.60;99.90
68385;DHT22;55336;43.062;25.626;2022-09-17T01:53:35;16.60;99.90
68385;DHT22;55336;43.062;25.626;2022-09-17T01:56:03;16.60;99.90
68385;DHT22;55336;43.062;25.626;2022-09-17T01:58:38;16.60;99.90
68385;DHT22;55336;43.062;25.626;2022-09-17T02:01:08;16.60;99.90
68385;DHT22;55336;43.062;25.626;2022-09-17T02:03:43;16.50;99.90
68385;DHT22;55336;43.062;25.626;2022-09-17T02:06:24;16.50;99.90
68385;DHT22;55336;43.062;25.626;2022-09-17T02:11:19;16.50;99.90
68385;DHT22;55336;43.062;25.626;2022-09-17T02:13:59;16.50;99.90
68385;DHT22;55336;43.062;25.626;2022-09-17T02:16:29;16.50;99.90
68385;DHT22;55336;43.062;25.626;2022-09-17T02:19:08;16.50;99.90
68385;DHT22;55336;43.062;25.626;2022-09-17T02:24:32;16.50;99.90
68385;DHT22;55336;43.062;25.626;2022-09-17T02:27:06;16.60;99.90
68385;DHT22;55336;43.062;25.626;2022-09-17T02:29:41;16.60;99.90
68385;DHT22;55336;43.062;25.626;2022-09-17T02:32:08;16.60;99.90
68385;DHT22;55336;43.062;25.626;2022-09-17T02:34:34;16.60;99.90
68385;DHT22;55336;43.062;25.626;2022-09-17T02:37:01;16.50;99.90
68385;DHT22;55336;43.062;25.626;2022-09-17T02:39:28;16.50;99.90
68385;DHT22;55336;43.062;25.626;2022-09-17T03:04:27;16.60;99.90
68385;DHT22;55336;43.062;25.626;2022-09-17T03:06:54;16.60;99.90
68385;DHT22;55336;43.062;25.626;2022-09-17T03:09:21;16.60;99.90
68385;DHT22;55336;43.062;25.626;2022-09-17T03:11:46;16.20;99.90
68385;DHT22;55336;43.062;25.626;2022-09-17T03:14:12;16.50;99.90
68385;DHT22;55336;43.062;25.626;2022-09-17T03:16:38;16.40;99.90
68385;DHT22;55336;43.062;25.626;2022-09-17T03:19:04;16.30;99.90
68385;DHT22;55336;43.062;25.626;2022-09-17T03:21:30;16.30;99.90
68385;DHT22;55336;43.062;25.626;2022-09-17T03:23:56;16.20;99.90
68385;DHT22;55336;43.062;25.626;2022-09-17T03:26:25;16.20;99.90
68385;DHT22;55336;43.062;25.626;2022-09-17T03:28:52;16.00;99.90
68385;DHT22;55336;43.062;25.626;2022-09-17T03:31:17;16.00;99.90
68385;DHT22;55336;43.062;25.626;2022-09-17T03:33:43;16.00;99.90
68385;DHT22;55336;43.062;25.626;2022-09-17T03:36:09;15.90;99.90
68385;DHT22;55336;43.062;25.626;2022-09-17T03:38:35;15.90;99.90
68385;DHT22;55336;43.062;25.626;2022-09-17T03:41:04;15.80;99.90
68385;DHT22;55336;43.062;25.626;2022-09-17T03:43:32;15.80;99.90
68385;DHT22;55336;43.062;25.626;2022-09-17T03:45:58;15.80;99.90
68385;DHT22;55336;43.062;25.626;2022-09-17T03:48:25;15.70;99.90
68385;DHT22;55336;43.062;25.626;2022-09-17T03:50:51;15.70;99.90
68385;DHT22;55336;43.062;25.626;2022-09-17T03:53:17;15.70;99.90
68385;DHT22;55336;43.062;25.626;2022-09-17T03:55:43;15.60;99.90
68385;DHT22;55336;43.062;25.626;2022-09-17T03:58:09;15.60;99.90
68385;DHT22;55336;43.062;25.626;2022-09-17T04:00:35;15.60;99.90
68385;DHT22;55336;43.062;25.626;2022-09-17T04:03:05;15.50;99.90
68385;DHT22;55336;43.062;25.626;2022-09-17T04:05:31;15.50;99.90
68385;DHT22;55336;43.062;25.626;2022-09-17T04:07:57;15.50;99.90
68385;DHT22;55336;43.062;25.626;2022-09-17T04:10:23;15.50;99.90
68385;DHT22;55336;43.062;25.626;2022-09-17T04:12:49;15.60;99.90
68385;DHT22;55336;43.062;25.626;2022-09-17T04:15:15;15.70;99.90
68385;DHT22;55336;43.062;25.626;2022-09-17T04:17:41;15.70;99.90
68385;DHT22;55336;43.062;25.626;2022-09-17T04:20:07;15.80;99.90
68385;DHT22;55336;43.062;25.626;2022-09-17T04:22:33;15.90;99.90
68385;DHT22;55336;43.062;25.626;2022-09-17T04:24:59;16.00;99.90
68385;DHT22;55336;43.062;25.626;2022-09-17T04:27:25;16.10;99.90
68385;DHT22;55336;43.062;25.626;2022-09-17T04:29:51;16.30;99.90
68385;DHT22;55336;43.062;25.626;2022-09-17T04:32:16;16.30;99.90
68385;DHT22;55336;43.062;25.626;2022-09-17T04:34:42;16.40;99.90
68385;DHT22;55336;43.062;25.626;2022-09-17T04:37:08;16.50;99.90
68385;DHT22;55336;43.062;25.626;2022-09-17T04:39:35;16.60;99.90
68385;DHT22;55336;43.062;25.626;2022-09-17T04:42:02;16.70;99.90
68385;DHT22;55336;43.062;25.626;2022-09-17T04:44:28;16.80;99.90
68385;DHT22;55336;43.062;25.626;2022-09-17T04:46:55;16.90;99.90
68385;DHT22;55336;43.062;25.626;2022-09-17T04:49:21;16.90;99.90
68385;DHT22;55336;43.062;25.626;2022-09-17T04:51:46;16.90;99.90
68385;DHT22;55336;43.062;25.626;2022-09-17T04:54:12;16.90;99.90
68385;DHT22;55336;43.062;25.626;2022-09-17T04:56:39;17.00;99.90
68385;DHT22;55336;43.062;25.626;2022-09-17T04:59:05;17.10;99.90
68385;DHT22;55336;43.062;25.626;2022-09-17T05:01:30;17.20;99.90
68385;DHT22;55336;43.062;25.626;2022-09-17T05:03:56;17.20;99.90
68385;DHT22;55336;43.062;25.626;2022-09-17T05:06:22;17.30;99.90
68385;DHT22;55336;43.062;25.626;2022-09-17T05:08:48;17.40;99.90
68385;DHT22;55336;43.062;25.626;2022-09-17T05:11:14;17.50;99.90
68385;DHT22;55336;43.062;25.626;2022-09-17T05:13:40;17.60;99.90
68385;DHT22;55336;43.062;25.626;2022-09-17T05:16:05;17.70;99.90
68385;DHT22;55336;43.062;25.626;2022-09-17T05:18:31;17.80;99.90
68385;DHT22;55336;43.062;25.626;2022-09-17T05:20:57;17.90;99.90
68385;DHT22;55336;43.062;25.626;2022-09-17T05:23:23;18.10;99.90
68385;DHT22;55336;43.062;25.626;2022-09-17T05:25:49;18.20;99.90
68385;DHT22;55336;43.062;25.626;2022-09-17T05:28:15;18.40;99.90
68385;DHT22;55336;43.062;25.626;2022-09-17T05:30:40;18.60;99.90
68385;DHT22;55336;43.062;25.626;2022-09-17T05:33:07;18.70;99.90
68385;DHT22;55336;43.062;25.626;2022-09-17T05:35:33;18.80;99.90
68385;DHT22;55336;43.062;25.626;2022-09-17T05:38:03;18.90;99.90
68385;DHT22;55336;43.062;25.626;2022-09-17T05:40:30;19.00;99.90
68385;DHT22;55336;43.062;25.626;2022-09-17T05:43:02;19.30;99.90
68385;DHT22;55336;43.062;25.626;2022-09-17T05:45:29;19.50;99.90
68385;DHT22;55336;43.062;25.626;2022-09-17T05:47:56;19.80;99.90
68385;DHT22;55336;43.062;25.626;2022-09-17T05:50:22;20.20;99.90
68385;DHT22;55336;43.062;25.626;2022-09-17T05:52:49;20.60;99.90
68385;DHT22;55336;43.062;25.626;2022-09-17T05:55:17;20.90;99.90
68385;DHT22;55336;43.062;25.626;2022-09-17T05:57:43;21.10;99.90
68385;DHT22;55336;43.062;25.626;2022-09-17T06:00:09;21.20;99.90
68385;DHT22;55336;43.062;25.626;2022-09-17T06:02:36;21.40;99.90
68385;DHT22;55336;43.062;25.626;2022-09-17T06:05:03;21.70;99.90
68385;DHT22;55336;43.062;25.626;2022-09-17T06:07:29;21.60;99.90
68385;DHT22;55336;43.062;25.626;2022-09-17T06:09:55;22.10;99.90
68385;DHT22;55336;43.062;25.626;2022-09-17T06:12:21;22.40;99.90
68385;DHT22;55336;43.062;25.626;2022-09-17T06:14:47;22.70;99.90
68385;DHT22;55336;43.062;25.626;2022-09-17T06:17:13;23.10;99.90
68385;DHT22;55336;43.062;25.626;2022-09-17T06:19:39;23.60;99.90
68385;DHT22;55336;43.062;25.626;2022-09-17T06:22:05;23.90;99.90
68385;DHT22;55336;43.062;25.626;2022-09-17T06:24:31;24.20;99.90
68385;DHT22;55336;43.062;25.626;2022-09-17T06:26:57;24.70;99.90
68385;DHT22;55336;43.062;25.626;2022-09-17T06:29:23;25.20;99.90
68385;DHT22;55336;43.062;25.626;2022-09-17T06:31:49;25.90;99.90
68385;DHT22;55336;43.062;25.626;2022-09-17T06:34:16;26.20;99.90
68385;DHT22;55336;43.062;25.626;2022-09-17T06:36:42;26.40;99.90
68385;DHT22;55336;43.062;25.626;2022-09-17T06:39:08;26.60;96.10
68385;DHT22;55336;43.062;25.626;2022-09-17T06:41:36;26.50;95.60
68385;DHT22;55336;43.062;25.626;2022-09-17T06:44:03;26.80;93.90
68385;DHT22;55336;43.062;25.626;2022-09-17T06:46:29;26.50;93.20
68385;DHT22;55336;43.062;25.626;2022-09-17T06:48:55;27.10;96.10
68385;DHT22;55336;43.062;25.626;2022-09-17T06:51:21;27.60;91.00
68385;DHT22;55336;43.062;25.626;2022-09-17T06:53:47;27.80;86.30
68385;DHT22;55336;43.062;25.626;2022-09-17T06:56:13;28.20;83.40
68385;DHT22;55336;43.062;25.626;2022-09-17T06:58:40;28.60;79.50
68385;DHT22;55336;43.062;25.626;2022-09-17T07:01:06;28.10;81.90
68385;DHT22;55336;43.062;25.626;2022-09-17T07:03:32;27.10;89.80
68385;DHT22;55336;43.062;25.626;2022-09-17T07:05:58;27.20;94.10
68385;DHT22;55336;43.062;25.626;2022-09-17T07:08:24;27.10;88.00
68385;DHT22;55336;43.062;25.626;2022-09-17T07:10:53;27.00;89.70
68385;DHT22;55336;43.062;25.626;2022-09-17T07:13:19;26.90;90.30
68385;DHT22;55336;43.062;25.626;2022-09-17T07:15:58;27.00;90.70
68385;DHT22;55336;43.062;25.626;2022-09-17T07:18:24;27.00;88.80
68385;DHT22;55336;43.062;25.626;2022-09-17T07:20:58;26.60;92.50
68385;DHT22;55336;43.062;25.626;2022-09-17T07:23:26;26.40;98.00
68385;DHT22;55336;43.062;25.626;2022-09-17T07:26:04;26.50;96.30
68385;DHT22;55336;43.062;25.626;2022-09-17T07:28:31;26.60;97.00
68385;DHT22;55336;43.062;25.626;2022-09-17T07:30:57;26.40;95.80
68385;DHT22;55336;43.062;25.626;2022-09-17T07:33:23;26.30;99.90
68385;DHT22;55336;43.062;25.626;2022-09-17T07:35:59;26.80;95.40
68385;DHT22;55336;43.062;25.626;2022-09-17T07:38:25;27.30;90.70
68385;DHT22;55336;43.062;25.626;2022-09-17T07:40:56;27.80;86.60
68385;DHT22;55336;43.062;25.626;2022-09-17T07:43:23;28.10;90.60
68385;DHT22;55336;43.062;25.626;2022-09-17T07:45:50;27.90;83.70
68385;DHT22;55336;43.062;25.626;2022-09-17T07:48:17;27.50;90.70
68385;DHT22;55336;43.062;25.626;2022-09-17T07:50:43;26.70;94.80
68385;DHT22;55336;43.062;25.626;2022-09-17T07:53:09;26.30;98.90
68385;DHT22;55336;43.062;25.626;2022-09-17T07:55:36;26.50;99.90
68385;DHT22;55336;43.062;25.626;2022-09-17T07:58:01;26.80;99.90
68385;DHT22;55336;43.062;25.626;2022-09-17T08:00:27;27.10;98.30
68385;DHT22;55336;43.062;25.626;2022-09-17T08:02:54;26.90;99.90
68385;DHT22;55336;43.062;25.626;2022-09-17T08:05:21;27.40;99.90
68385;DHT22;55336;43.062;25.626;2022-09-17T08:07:54;28.00;96.30
68385;DHT22;55336;43.062;25.626;2022-09-17T08:10:21;28.70;84.90
68385;DHT22;55336;43.062;25.626;2022-09-17T08:12:54;29.10;81.70
68385;DHT22;55336;43.062;25.626;2022-09-17T08:15:21;29.40;78.30
68385;DHT22;55336;43.062;25.626;2022-09-17T08:17:47;29.40;81.10
68385;DHT22;55336;43.062;25.626;2022-09-17T08:20:14;29.20;80.30
68385;DHT22;55336;43.062;25.626;2022-09-17T08:22:41;29.30;75.50
68385;DHT22;55336;43.062;25.626;2022-09-17T08:25:08;29.30;79.10
68385;DHT22;55336;43.062;25.626;2022-09-17T08:27:35;29.40;79.60
68385;DHT22;55336;43.062;25.626;2022-09-17T08:30:04;29.00;84.20
68385;DHT22;55336;43.062;25.626;2022-09-17T08:32:30;29.10;84.10
68385;DHT22;55336;43.062;25.626;2022-09-17T08:34:56;29.00;82.20
68385;DHT22;55336;43.062;25.626;2022-09-17T08:37:22;29.10;85.20
68385;DHT22;55336;43.062;25.626;2022-09-17T08:39:48;28.80;85.50
68385;DHT22;55336;43.062;25.626;2022-09-17T08:42:36;29.20;88.30
68385;DHT22;55336;43.062;25.626;2022-09-17T08:45:04;29.50;84.90
68385;DHT22;55336;43.062;25.626;2022-09-17T08:47:37;30.20;82.60
68385;DHT22;55336;43.062;25.626;2022-09-17T08:50:06;30.70;80.00
68385;DHT22;55336;43.062;25.626;2022-09-17T08:58:38;31.40;68.30
68385;DHT22;55336;43.062;25.626;2022-09-17T09:06:30;32.70;61.10
68385;DHT22;55336;43.062;25.626;2022-09-17T09:09:05;32.90;56.20
68385;DHT22;55336;43.062;25.626;2022-09-17T09:11:35;34.10;51.40
68385;DHT22;55336;43.062;25.626;2022-09-17T09:14:26;34.70;50.40
68385;DHT22;55336;43.062;25.626;2022-09-17T09:16:56;35.00;51.60
68385;DHT22;55336;43.062;25.626;2022-09-17T09:19:27;35.40;45.90
68385;DHT22;55336;43.062;25.626;2022-09-17T09:24:40;34.10;46.80
68385;DHT22;55336;43.062;25.626;2022-09-17T09:27:27;33.80;47.00
68385;DHT22;55336;43.062;25.626;2022-09-17T09:30:11;34.80;44.70
68385;DHT22;55336;43.062;25.626;2022-09-17T09:32:47;35.10;42.00
68385;DHT22;55336;43.062;25.626;2022-09-17T09:41:05;33.50;51.90
68385;DHT22;55336;43.062;25.626;2022-09-17T09:43:43;33.80;46.90
68385;DHT22;55336;43.062;25.626;2022-09-17T09:46:35;34.10;40.90
68385;DHT22;55336;43.062;25.626;2022-09-17T09:52:12;34.70;38.60
68385;DHT22;55336;43.062;25.626;2022-09-17T09:57:51;33.80;40.00
68385;DHT22;55336;43.062;25.626;2022-09-17T10:00:25;34.10;39.00
68385;DHT22;55336;43.062;25.626;2022-09-17T10:05:26;34.10;40.30
68385;DHT22;55336;43.062;25.626;2022-09-17T10:07:53;33.90;37.80
68385;DHT22;55336;43.062;25.626;2022-09-17T10:10:19;34.50;37.00
68385;DHT22;55336;43.062;25.626;2022-09-17T10:12:45;35.30;35.20
68385;DHT22;55336;43.062;25.626;2022-09-17T10:15:24;35.70;35.80
68385;DHT22;55336;43.062;25.626;2022-09-17T10:18:20;35.60;36.20
68385;DHT22;55336;43.062;25.626;2022-09-17T10:20:57;35.00;37.00
68385;DHT22;55336;43.062;25.626;2022-09-17T10:23:26;34.90;36.10
68385;DHT22;55336;43.062;25.626;2022-09-17T10:25:53;34.10;33.50
68385;DHT22;55336;43.062;25.626;2022-09-17T10:28:52;33.70;33.50
68385;DHT22;55336;43.062;25.626;2022-09-17T10:31:19;33.30;34.60
68385;DHT22;55336;43.062;25.626;2022-09-17T10:34:00;33.00;35.70
68385;DHT22;55336;43.062;25.626;2022-09-17T10:36:39;33.00;34.80
68385;DHT22;55336;43.062;25.626;2022-09-17T10:39:37;33.30;36.20
68385;DHT22;55336;43.062;25.626;2022-09-17T10:42:14;33.70;33.10
68385;DHT22;55336;43.062;25.626;2022-09-17T10:47:24;34.40;31.50
68385;DHT22;55336;43.062;25.626;2022-09-17T10:50:00;33.70;34.70
68385;DHT22;55336;43.062;25.626;2022-09-17T10:52:52;33.00;36.10
68385;DHT22;55336;43.062;25.626;2022-09-17T11:03:46;31.90;38.20
68385;DHT22;55336;43.062;25.626;2022-09-17T11:23:04;28.90;47.50
68385;DHT22;55336;43.062;25.626;2022-09-17T11:25:50;28.00;53.20
68385;DHT22;55336;43.062;25.626;2022-09-17T11:36:37;24.30;74.60
68385;DHT22;55336;43.062;25.626;2022-09-17T11:39:21;23.90;77.90
68385;DHT22;55336;43.062;25.626;2022-09-17T11:41:49;23.60;80.50
68385;DHT22;55336;43.062;25.626;2022-09-17T11:44:34;23.50;83.10
68385;DHT22;55336;43.062;25.626;2022-09-17T11:47:21;23.30;88.20
68385;DHT22;55336;43.062;25.626;2022-09-17T11:49:49;23.30;89.80
68385;DHT22;55336;43.062;25.626;2022-09-17T11:52:22;23.30;87.50
68385;DHT22;55336;43.062;25.626;2022-09-17T11:54:56;23.30;86.70
68385;DHT22;55336;43.062;25.626;2022-09-17T11:57:32;23.30;87.70
68385;DHT22;55336;43.062;25.626;2022-09-17T12:03:04;23.10;94.10
68385;DHT22;55336;43.062;25.626;2022-09-17T12:05:48;22.90;95.70
68385;DHT22;55336;43.062;25.626;2022-09-17T12:11:17;22.20;99.90
68385;DHT22;55336;43.062;25.626;2022-09-17T12:13:56;21.80;99.90
68385;DHT22;55336;43.062;25.626;2022-09-17T12:21:28;20.90;99.90
68385;DHT22;55336;43.062;25.626;2022-09-17T12:24:11;20.60;99.90
68385;DHT22;55336;43.062;25.626;2022-09-17T12:35:24;20.40;99.90
68385;DHT22;55336;43.062;25.626;2022-09-17T12:41:19;20.60;99.90
68385;DHT22;55336;43.062;25.626;2022-09-17T12:44:15;20.70;99.90
68385;DHT22;55336;43.062;25.626;2022-09-17T12:46:48;20.80;99.90
68385;DHT22;55336;43.062;25.626;2022-09-17T12:52:10;21.00;99.90
68385;DHT22;55336;43.062;25.626;2022-09-17T12:57:40;20.90;99.90
68385;DHT22;55336;43.062;25.626;2022-09-17T13:00:13;21.20;99.90
68385;DHT22;55336;43.062;25.626;2022-09-17T13:02:56;21.60;99.90
68385;DHT22;55336;43.062;25.626;2022-09-17T13:10:40;22.70;99.90
68385;DHT22;55336;43.062;25.626;2022-09-17T13:21:28;22.30;99.90
68385;DHT22;55336;43.062;25.626;2022-09-17T13:23:57;22.00;99.90
68385;DHT22;55336;43.062;25.626;2022-09-17T13:26:36;22.10;99.90
68385;DHT22;55336;43.062;25.626;2022-09-17T13:29:04;22.30;99.90
68385;DHT22;55336;43.062;25.626;2022-09-17T13:34:00;22.10;99.90
68385;DHT22;55336;43.062;25.626;2022-09-17T13:36:48;22.10;99.90
68385;DHT22;55336;43.062;25.626;2022-09-17T13:39:42;22.30;99.90
68385;DHT22;55336;43.062;25.626;2022-09-17T13:42:19;22.90;99.90
68385;DHT22;55336;43.062;25.626;2022-09-17T13:44:51;23.30;99.90
68385;DHT22;55336;43.062;25.626;2022-09-17T13:47:27;24.20;99.90
68385;DHT22;55336;43.062;25.626;2022-09-17T13:50:07;25.00;99.90
68385;DHT22;55336;43.062;25.626;2022-09-17T13:52:40;25.60;99.90
68385;DHT22;55336;43.062;25.626;2022-09-17T13:55:08;25.60;99.90
68385;DHT22;55336;43.062;25.626;2022-09-17T13:57:54;25.20;99.90
68385;DHT22;55336;43.062;25.626;2022-09-17T14:00:50;24.30;99.90
68385;DHT22;55336;43.062;25.626;2022-09-17T14:03:47;23.80;99.90
68385;DHT22;55336;43.062;25.626;2022-09-17T14:13:54;23.90;99.90
68385;DHT22;55336;43.062;25.626;2022-09-17T14:18:58;24.10;99.90
68385;DHT22;55336;43.062;25.626;2022-09-17T14:21:33;24.20;99.90
68385;DHT22;55336;43.062;25.626;2022-09-17T14:24:02;24.00;99.90
68385;DHT22;55336;43.062;25.626;2022-09-17T14:27:10;23.80;99.90
68385;DHT22;55336;43.062;25.626;2022-09-17T14:32:17;24.60;99.90
68385;DHT22;55336;43.062;25.626;2022-09-17T14:34:46;25.20;99.90
68385;DHT22;55336;43.062;25.626;2022-09-17T14:37:16;25.00;99.90
68385;DHT22;55336;43.062;25.626;2022-09-17T14:39:43;25.30;99.90
68385;DHT22;55336;43.062;25.626;2022-09-17T14:42:23;25.90;99.90
68385;DHT22;55336;43.062;25.626;2022-09-17T14:45:02;25.40;99.90
68385;DHT22;55336;43.062;25.626;2022-09-17T14:47:29;25.30;99.90
68385;DHT22;55336;43.062;25.626;2022-09-17T14:50:18;26.00;99.90
68385;DHT22;55336;43.062;25.626;2022-09-17T14:52:49;25.60;99.90
68385;DHT22;55336;43.062;25.626;2022-09-17T14:55:23;25.30;99.90
68385;DHT22;55336;43.062;25.626;2022-09-17T14:57:57;25.70;99.90
68385;DHT22;55336;43.062;25.626;2022-09-17T15:00:34;25.60;99.90
68385;DHT22;55336;43.062;25.626;2022-09-17T15:03:02;25.20;99.90
68385;DHT22;55336;43.062;25.626;2022-09-17T15:05:36;25.00;99.90
68385;DHT22;55336;43.062;25.626;2022-09-17T15:10:45;24.40;99.90
68385;DHT22;55336;43.062;25.626;2022-09-17T15:13:29;24.20;99.90
68385;DHT22;55336;43.062;25.626;2022-09-17T15:16:05;23.90;99.90
68385;DHT22;55336;43.062;25.626;2022-09-17T15:18:48;23.30;99.90
68385;DHT22;55336;43.062;25.626;2022-09-17T15:21:35;23.00;99.90
68385;DHT22;55336;43.062;25.626;2022-09-17T15:24:19;22.80;99.90
68385;DHT22;55336;43.062;25.626;2022-09-17T15:26:52;22.50;99.90
68385;DHT22;55336;43.062;25.626;2022-09-17T15:29:22;22.50;99.90
68385;DHT22;55336;43.062;25.626;2022-09-17T15:31:48;22.50;99.90
68385;DHT22;55336;43.062;25.626;2022-09-17T15:34:14;22.50;99.90
68385;DHT22;55336;43.062;25.626;2022-09-17T15:36:40;22.20;99.90
68385;DHT22;55336;43.062;25.626;2022-09-17T15:39:50;21.90;99.90
68385;DHT22;55336;43.062;25.626;2022-09-17T15:44:43;21.70;99.90
68385;DHT22;55336;43.062;25.626;2022-09-17T15:50:18;21.60;99.90
68385;DHT22;55336;43.062;25.626;2022-09-17T15:52:45;21.10;99.90
68385;DHT22;55336;43.062;25.626;2022-09-17T15:58:03;21.20;99.90
68385;DHT22;55336;43.062;25.626;2022-09-17T16:00:30;21.10;99.90
68385;DHT22;55336;43.062;25.626;2022-09-17T16:02:56;21.10;99.90
68385;DHT22;55336;43.062;25.626;2022-09-17T16:07:48;21.00;99.90
68385;DHT22;55336;43.062;25.626;2022-09-17T16:10:14;20.80;99.90
68385;DHT22;55336;43.062;25.626;2022-09-17T16:12:40;20.90;99.90
68385;DHT22;55336;43.062;25.626;2022-09-17T16:15:07;20.80;99.90
68385;DHT22;55336;43.062;25.626;2022-09-17T16:17:42;20.80;99.90
68385;DHT22;55336;43.062;25.626;2022-09-17T16:20:19;20.80;99.90
68385;DHT22;55336;43.062;25.626;2022-09-17T16:22:46;20.50;99.90
68385;DHT22;55336;43.062;25.626;2022-09-17T16:25:13;20.50;99.90
68385;DHT22;55336;43.062;25.626;2022-09-17T16:30:15;20.60;99.90
68385;DHT22;55336;43.062;25.626;2022-09-17T16:32:41;20.50;99.90
68385;DHT22;55336;43.062;25.626;2022-09-17T16:35:10;20.50;99.90
68385;DHT22;55336;43.062;25.626;2022-09-17T16:37:36;20.50;99.90
68385;DHT22;55336;43.062;25.626;2022-09-17T16:40:02;20.50;99.90
68385;DHT22;55336;43.062;25.626;2022-09-17T16:42:31;20.40;99.90
68385;DHT22;55336;43.062;25.626;2022-09-17T16:44:57;20.40;99.90
68385;DHT22;55336;43.062;25.626;2022-09-17T16:47:25;20.20;99.90
68385;DHT22;55336;43.062;25.626;2022-09-17T16:49:51;20.30;99.90
68385;DHT22;55336;43.062;25.626;2022-09-17T16:52:17;20.20;99.90
68385;DHT22;55336;43.062;25.626;2022-09-17T16:54:43;20.20;99.90
68385;DHT22;55336;43.062;25.626;2022-09-17T16:57:09;20.10;99.90
68385;DHT22;55336;43.062;25.626;2022-09-17T16:59:35;20.10;99.90
68385;DHT22;55336;43.062;25.626;2022-09-17T17:02:01;20.20;99.90
68385;DHT22;55336;43.062;25.626;2022-09-17T17:04:27;20.20;99.90
68385;DHT22;55336;43.062;25.626;2022-09-17T17:06:53;20.10;99.90
68385;DHT22;55336;43.062;25.626;2022-09-17T17:09:19;20.10;99.90
68385;DHT22;55336;43.062;25.626;2022-09-17T17:11:45;20.10;99.90
68385;DHT22;55336;43.062;25.626;2022-09-17T17:14:13;20.20;99.90
68385;DHT22;55336;43.062;25.626;2022-09-17T17:16:39;20.20;99.90
68385;DHT22;55336;43.062;25.626;2022-09-17T17:19:07;20.40;99.90
68385;DHT22;55336;43.062;25.626;2022-09-17T17:21:32;20.40;99.90
68385;DHT22;55336;43.062;25.626;2022-09-17T17:23:58;20.50;99.90
68385;DHT22;55336;43.062;25.626;2022-09-17T17:26:24;20.50;99.90
68385;DHT22;55336;43.062;25.626;2022-09-17T17:28:50;20.50;99.90
68385;DHT22;55336;43.062;25.626;2022-09-17T17:31:16;20.60;99.90
68385;DHT22;55336;43.062;25.626;2022-09-17T17:33:42;20.70;99.90
68385;DHT22;55336;43.062;25.626;2022-09-17T17:36:09;20.70;99.90
68385;DHT22;55336;43.062;25.626;2022-09-17T17:38:35;20.60;99.90
68385;DHT22;55336;43.062;25.626;2022-09-17T17:41:07;20.60;99.90
68385;DHT22;55336;43.062;25.626;2022-09-17T17:43:33;20.60;99.90
68385;DHT22;55336;43.062;25.626;2022-09-17T17:46:00;20.50;99.90
68385;DHT22;55336;43.062;25.626;2022-09-17T17:48:26;20.50;99.90
68385;DHT22;55336;43.062;25.626;2022-09-17T17:50:52;20.50;99.90
68385;DHT22;55336;43.062;25.626;2022-09-17T17:53:18;20.50;99.90
68385;DHT22;55336;43.062;25.626;2022-09-17T17:55:53;20.50;99.90
68385;DHT22;55336;43.062;25.626;2022-09-17T17:58:19;20.50;99.90
68385;DHT22;55336;43.062;25.626;2022-09-17T18:00:45;20.50;99.90
68385;DHT22;55336;43.062;25.626;2022-09-17T18:03:10;20.40;99.90
68385;DHT22;55336;43.062;25.626;2022-09-17T18:05:38;20.40;99.90
68385;DHT22;55336;43.062;25.626;2022-09-17T18:08:04;20.40;99.90
68385;DHT22;55336;43.062;25.626;2022-09-17T18:10:30;20.30;99.90
68385;DHT22;55336;43.062;25.626;2022-09-17T18:12:56;20.30;99.90
68385;DHT22;55336;43.062;25.626;2022-09-17T18:15:21;20.20;99.90
68385;DHT22;55336;43.062;25.626;2022-09-17T18:17:47;20.20;99.90
68385;DHT22;55336;43.062;25.626;2022-09-17T18:20:15;20.10;99.90
68385;DHT22;55336;43.062;25.626;2022-09-17T18:22:42;20.10;99.90
68385;DHT22;55336;43.062;25.626;2022-09-17T18:25:08;20.10;99.90
68385;DHT22;55336;43.062;25.626;2022-09-17T18:27:34;20.00;99.90
68385;DHT22;55336;43.062;25.626;2022-09-17T18:30:00;19.90;99.90
68385;DHT22;55336;43.062;25.626;2022-09-17T18:32:26;19.90;99.90
68385;DHT22;55336;43.062;25.626;2022-09-17T18:34:52;19.80;99.90
68385;DHT22;55336;43.062;25.626;2022-09-17T18:37:18;19.80;99.90
68385;DHT22;55336;43.062;25.626;2022-09-17T18:39:44;19.70;99.90
68385;DHT22;55336;43.062;25.626;2022-09-17T18:42:09;19.60;99.90